Time;durP1;ratioP1;P1;durP2;ratioP2;P2;SDS_P1;SDS_P2;PMS_P1;PMS_P2;Temp;Humidity;BMP_temperature;BMP_pressure;BME280_temperature;BME280_humidity;BME280_pressure;Samples;Min_cycle;Max_cycle;Signal;HPM_P1;HPM_P2
2022/07/05 00:00:10;;;;;;;4.40;2.83;;;16.30;1.00;;;;;;10354444;28;20197;-76
2022/07/05 00:05:36;;;;;;;5.97;3.72;;;16.30;1.00;;;;;;10354190;28;20508;-79
2022/07/05 00:10:57;;;;;;;6.40;3.95;;;16.10;1.00;;;;;;10353725;28;20550;-75
2022/07/05 00:16:18;;;;;;;6.47;3.97;;;16.00;1.00;;;;;;10353880;28;20220;-75
2022/07/05 00:21:40;;;;;;;6.65;4.32;;;16.00;14.40;;;;;;10354282;28;20196;-75
2022/07/05 00:27:02;;;;;;;7.22;4.43;;;16.00;1.00;;;;;;10331718;28;20220;-75
2022/07/05 00:32:24;;;;;;;9.07;5.22;;;16.00;1.00;;;;;;10314286;28;20198;-75
2022/07/05 00:37:45;;;;;;;7.28;4.80;;;15.90;1.00;;;;;;10319772;28;20248;-75
2022/07/05 00:43:07;;;;;;;9.20;4.90;;;15.90;99.90;;;;;;10340586;28;20268;-76
2022/07/05 00:48:28;;;;;;;6.88;3.60;;;15.90;99.90;;;;;;10360625;28;20279;-76
2022/07/05 00:53:50;;;;;;;5.95;3.28;;;;;;;;;;10359607;28;20227;-75
2022/07/05 00:59:11;;;;;;;6.40;3.47;;;15.70;1.00;;;;;;10345601;28;20426;-75
2022/07/05 01:04:32;;;;;;;5.25;2.95;;;15.60;1.00;;;;;;10359448;28;20202;-75
2022/07/05 01:09:54;;;;;;;8.77;2.75;;;15.50;34.00;;;;;;10359091;28;20204;-76
2022/07/05 01:15:17;;;;;;;5.07;3.22;;;15.40;16.40;;;;;;10318538;28;20224;-75
2022/07/05 01:20:39;;;;;;;6.35;3.05;;;15.40;1.00;;;;;;10357630;28;20235;-75
2022/07/05 01:26:04;;;;;;;10.20;3.45;;;;;;;;;;10353040;28;20204;-76
2022/07/05 01:31:25;;;;;;;5.05;2.90;;;15.40;99.90;;;;;;10347348;28;20220;-75
2022/07/05 01:36:47;;;;;;;8.13;3.25;;;15.40;99.90;;;;;;10358088;28;20255;-76
2022/07/05 01:42:09;;;;;;;4.57;3.38;;;15.40;99.90;;;;;;10343532;28;20192;-75
2022/07/05 01:47:35;;;;;;;6.57;3.30;;;15.30;99.90;;;;;;10357631;28;20305;-77
2022/07/05 01:53:00;;;;;;;4.38;2.72;;;15.20;1.00;;;;;;10343416;28;20197;-77
2022/07/05 01:58:21;;;;;;;4.88;2.67;;;15.20;1.00;;;;;;10357082;28;20215;-75
2022/07/05 02:03:44;;;;;;;3.63;2.80;;;15.20;99.90;;;;;;10359303;28;20211;-76
2022/07/05 02:09:16;;;;;;;6.97;2.72;;;;;;;;;;10342732;28;20517;-76
2022/07/05 02:14:38;;;;;;;5.97;3.35;;;;;;;;;;10343942;28;20227;-76
2022/07/05 02:20:06;;;;;;;6.65;3.95;;;15.20;1.00;;;;;;10342343;28;20201;-75
2022/07/05 02:25:28;;;;;;;5.97;3.75;;;15.30;1.00;;;;;;10356265;28;20217;-75
2022/07/05 02:30:53;;;;;;;8.32;3.78;;;15.30;99.90;;;;;;10328729;28;20206;-76
2022/07/05 02:36:15;;;;;;;6.60;3.88;;;15.20;99.90;;;;;;10355833;28;20235;-76
2022/07/05 02:41:38;;;;;;;4.30;3.30;;;15.20;99.90;;;;;;10355330;28;20224;-75
2022/07/05 02:46:59;;;;;;;4.57;3.55;;;15.10;99.90;;;;;;10355327;28;20228;-74
2022/07/05 02:52:24;;;;;;;4.03;2.78;;;15.10;99.90;;;;;;10341366;28;20272;-75
2022/07/05 02:57:46;;;;;;;5.88;2.95;;;15.10;99.90;;;;;;10354102;28;20530;-76
2022/07/05 03:03:10;;;;;;;5.38;2.90;;;15.10;99.90;;;;;;10340740;28;20199;-75
2022/07/05 03:08:32;;;;;;;3.13;2.65;;;15.00;99.90;;;;;;10340602;28;20286;-77
2022/07/05 03:13:54;;;;;;;6.53;2.92;;;15.20;99.90;;;;;;10354011;28;20505;-77
2022/07/05 03:19:15;;;;;;;5.40;3.38;;;15.10;1.00;;;;;;10354902;28;20202;-75
2022/07/05 03:24:37;;;;;;;5.28;3.28;;;15.10;99.90;;;;;;10368091;28;20195;-76
2022/07/05 03:29:59;;;;;;;9.27;3.17;;;15.10;1.00;;;;;;10354034;28;20233;-76
2022/07/05 03:35:27;;;;;;;5.05;2.97;;;15.20;1.00;;;;;;10353707;28;20273;-75
2022/07/05 03:40:50;;;;;;;5.38;3.10;;;15.40;99.90;;;;;;10341318;28;20202;-75
2022/07/05 03:46:12;;;;;;;6.55;3.10;;;15.50;1.00;;;;;;10355724;28;20241;-75
2022/07/05 03:51:35;;;;;;;4.88;3.63;;;15.60;99.90;;;;;;10339689;28;20208;-75
2022/07/05 03:56:58;;;;;;;7.43;3.63;;;15.70;99.90;;;;;;10353232;28;20219;-75
2022/07/05 04:02:19;;;;;;;5.97;3.90;;;15.80;1.00;;;;;;10354270;28;20280;-75
2022/07/05 04:07:49;;;;;;;6.70;3.40;;;15.80;1.00;;;;;;10350078;28;20275;-75
2022/07/05 04:13:12;;;;;;;6.25;3.10;;;15.80;1.00;;;;;;10349376;28;20200;-75
2022/07/05 04:18:35;;;;;;;4.68;3.05;;;15.80;99.90;;;;;;10362250;28;20205;-76
2022/07/05 04:23:58;;;;;;;10.50;4.50;;;15.90;99.90;;;;;;10348892;28;20200;-75
2022/07/05 04:29:20;;;;;;;4.15;3.40;;;16.00;99.90;;;;;;10361124;28;20201;-75
2022/07/05 04:34:41;;;;;;;4.75;2.72;;;16.10;99.90;;;;;;10361357;28;20224;-75
2022/07/05 04:40:08;;;;;;;6.55;2.75;;;16.20;1.00;;;;;;10359805;28;20191;-75
2022/07/05 04:45:29;;;;;;;9.82;2.88;;;16.40;1.00;;;;;;10360301;28;20205;-78
2022/07/05 04:50:52;;;;;;;6.85;3.40;;;16.50;1.00;;;;;;10360030;28;20558;-75
2022/07/05 04:56:14;;;;;;;3.70;2.28;;;16.70;1.00;;;;;;10360382;28;20460;-76
2022/07/05 05:01:36;;;;;;;5.57;1.90;;;16.80;81.60;;;;;;10360495;28;20504;-76
2022/07/05 05:06:58;;;;;;;2.42;2.03;;;17.00;1.00;;;;;;10359106;28;20507;-75
2022/07/05 05:12:19;;;;;;;4.38;2.08;;;17.10;1.00;;;;;;10359712;28;20196;-76
2022/07/05 05:17:42;;;;;;;3.97;2.60;;;17.30;45.70;;;;;;10358031;28;20431;-76
2022/07/05 05:23:03;;;;;;;4.50;2.38;;;17.50;35.20;;;;;;10359360;28;20379;-76
2022/07/05 05:28:25;;;;;;;3.28;2.17;;;17.70;1.00;;;;;;10359322;28;20192;-76
2022/07/05 05:33:47;;;;;;;3.33;2.03;;;17.80;1.00;;;;;;10317884;28;20388;-76
2022/07/05 05:39:08;;;;;;;3.95;2.15;;;17.90;1.00;;;;;;10320091;28;20379;-76
2022/07/05 05:44:30;;;;;;;4.50;2.20;;;18.10;99.90;;;;;;10345520;28;20370;-76
2022/07/05 05:49:51;;;;;;;4.80;2.65;;;18.20;99.90;;;;;;10358314;28;20525;-77
2022/07/05 05:55:13;;;;;;;2.15;1.75;;;18.50;1.00;;;;;;10356923;28;20299;-77
2022/07/05 06:00:34;;;;;;;3.00;1.70;;;18.60;99.90;;;;;;10358042;28;20256;-77
2022/07/05 06:05:56;;;;;;;2.78;1.60;;;18.80;99.90;;;;;;10356891;28;20293;-76
2022/07/05 06:11:17;;;;;;;3.35;1.52;;;19.00;1.00;;;;;;10332361;28;20253;-77
2022/07/05 06:16:38;;;;;;;3.03;2.00;;;19.20;1.00;;;;;;10321686;28;20299;-77
2022/07/05 06:22:00;;;;;;;1.58;1.40;;;19.40;1.00;;;;;;10356994;28;20197;-79
2022/07/05 06:27:21;;;;;;;1.52;1.20;;;19.50;1.00;;;;;;10355889;28;20492;-77
2022/07/05 06:32:47;;;;;;;2.58;1.38;;;19.70;1.00;;;;;;10356627;28;20248;-76
2022/07/05 06:38:09;;;;;;;2.63;1.52;;;20.10;1.00;;;;;;10356246;28;20528;-76
2022/07/05 06:43:30;;;;;;;2.65;1.10;;;20.40;1.00;;;;;;10356424;28;20197;-77
2022/07/05 06:49:02;;;;;;;2.58;1.10;;;21.30;1.00;;;;;;10354820;28;20253;-76
2022/07/05 06:54:23;;;;;;;1.67;1.00;;;21.40;1.00;;;;;;10355782;28;20221;-77
2022/07/05 07:00:05;;;;;;;3.53;2.42;;;22.10;99.20;;;;;;10355673;28;20262;-77
2022/07/05 07:05:46;;;;;;;1.95;1.20;;;22.90;99.90;;;;;;10354756;28;20190;-76
2022/07/05 07:11:23;;;;;;;4.68;1.58;;;23.60;99.90;;;;;;10355534;28;20248;-76
2022/07/05 07:16:45;;;;;;;1.65;0.70;;;23.90;1.00;;;;;;10324826;28;20548;-77
2022/07/05 07:22:07;;;;;;;1.13;0.80;;;24.30;1.00;;;;;;10349145;28;20205;-75
2022/07/05 07:27:28;;;;;;;3.83;1.80;;;24.70;1.00;;;;;;10324159;28;20226;-76
2022/07/05 07:32:50;;;;;;;4.43;0.98;;;25.10;1.00;;;;;;10333951;28;20190;-76
2022/07/05 07:38:11;;;;;;;4.13;1.33;;;25.70;1.00;;;;;;10350604;28;20225;-76
2022/07/05 07:43:33;;;;;;;1.48;1.05;;;26.20;1.00;;;;;;10348593;28;20197;-79
2022/07/05 07:48:54;;;;;;;1.95;1.08;;;26.00;99.90;;;;;;10348409;28;20260;-78
2022/07/05 07:54:16;;;;;;;2.05;0.90;;;26.10;99.90;;;;;;10349794;28;20197;-77
2022/07/05 07:59:37;;;;;;;4.05;1.15;;;26.10;99.90;;;;;;10349443;28;20223;-78
2022/07/05 08:04:58;;;;;;;1.50;1.30;;;26.10;99.90;;;;;;10348800;28;20225;-77
2022/07/05 08:10:20;;;;;;;1.98;1.20;;;26.40;99.90;;;;;;10347745;28;20213;-77
2022/07/05 08:15:41;;;;;;;2.45;1.10;;;26.80;99.90;;;;;;10334121;28;20524;-78
2022/07/05 08:26:42;;;;;;;1.92;1.00;;;27.30;99.90;;;;;;10321489;28;20528;-78
2022/07/05 08:32:04;;;;;;;2.67;1.20;;;27.50;99.90;;;;;;10333291;28;20186;-78
2022/07/05 08:37:40;;;;;;;2.05;1.00;;;27.80;99.90;;;;;;10348246;28;20532;-79
2022/07/05 08:43:02;;;;;;;1.20;1.10;;;28.20;99.90;;;;;;10347743;28;20222;-78
2022/07/05 08:48:26;;;;;;;2.03;1.50;;;28.50;99.90;;;;;;10348115;28;20241;-80
2022/07/05 08:53:50;;;;;;;4.10;1.20;;;28.90;99.90;;;;;;10339146;28;20245;-82
2022/07/05 08:59:12;;;;;;;5.20;1.40;;;28.70;99.90;;;;;;10307347;28;20198;-81
2022/07/05 09:04:41;;;;;;;1.35;1.10;;;27.60;99.90;;;;;;10354011;28;20393;-79
2022/07/05 09:10:03;;;;;;;1.95;1.00;;;26.90;99.90;;;;;;10346962;28;20206;-78
2022/07/05 09:15:25;;;;;;;1.90;1.23;;;27.30;99.90;;;;;;10353357;28;20464;-81
2022/07/05 09:20:46;;;;;;;3.88;1.23;;;28.10;99.90;;;;;;10352560;28;20205;-78
2022/07/05 09:26:11;;;;;;;1.33;1.00;;;28.20;99.90;;;;;;10353220;28;20383;-79
2022/07/05 09:31:38;;;;;;;1.83;1.20;;;27.50;99.90;;;;;;10353526;28;20501;-78
2022/07/05 09:37:03;;;;;;;1.48;1.00;;;26.60;99.90;;;;;;10369589;28;20261;-83
2022/07/05 09:42:25;;;;;;;3.55;1.20;;;27.40;99.90;;;;;;10338445;28;20233;-77
2022/07/05 09:47:47;;;;;;;2.60;1.25;;;28.50;99.90;;;;;;10353154;28;20241;-79
2022/07/05 09:53:20;;;;;;;4.03;1.08;;;28.80;99.90;;;;;;10353707;28;20435;-79
2022/07/05 09:58:43;;;;;;;3.25;1.05;;;27.50;99.90;;;;;;10366200;28;20237;-78
2022/07/05 10:04:04;;;;;;;1.30;0.93;;;27.70;99.90;;;;;;10351696;28;20248;-82
2022/07/05 10:09:27;;;;;;;1.40;0.85;;;27.70;99.90;;;;;;10333133;28;20225;-80
2022/07/05 10:14:48;;;;;;;2.45;0.80;;;26.90;99.90;;;;;;10346486;28;20678;-80
2022/07/05 10:20:16;;;;;;;2.25;1.10;;;26.30;99.90;;;;;;10351734;28;20205;-80
2022/07/05 10:25:41;;;;;;;1.60;1.00;;;25.90;99.90;;;;;;10336838;28;20206;-80
2022/07/05 10:31:03;;;;;;;1.50;1.00;;;26.50;99.90;;;;;;10352318;28;20278;-79
2022/07/05 10:36:26;;;;;;;2.20;0.98;;;26.50;99.90;;;;;;10349000;28;20551;-79
2022/07/05 10:41:48;;;;;;;3.30;1.30;;;26.00;99.90;;;;;;10348848;28;20228;-78
2022/07/05 10:47:11;;;;;;;7.78;1.45;;;25.60;99.90;;;;;;10347538;28;20233;-80
2022/07/05 10:52:32;;;;;;;1.73;1.00;;;25.30;99.90;;;;;;10347086;28;20206;-78
2022/07/05 10:58:16;;;;;;;1.35;0.95;;;25.00;99.90;;;;;;10347377;28;20243;-79
2022/07/05 11:04:02;;;;;;;1.23;1.10;;;25.00;99.90;;;;;;10348966;28;20233;-80
2022/07/05 11:09:24;;;;;;;4.03;1.90;;;25.00;99.90;;;;;;10340244;28;20202;-79
2022/07/05 11:14:46;;;;;;;3.67;1.75;;;25.00;99.90;;;;;;10347656;28;20617;-78
2022/07/05 11:20:13;;;;;;;7.13;1.30;;;25.00;99.90;;;;;;10306086;28;20221;-79
2022/07/05 11:25:39;;;;;;;2.17;1.20;;;25.00;99.90;;;;;;10309586;28;20201;-79
2022/07/05 11:31:01;;;;;;;3.75;1.48;;;25.20;99.90;;;;;;10308352;28;20210;-79
2022/07/05 11:36:26;;;;;;;1.73;1.30;;;26.40;99.90;;;;;;10348348;28;20225;-81
2022/07/05 11:41:48;;;;;;;6.13;1.42;;;27.30;99.90;;;;;;10351086;28;20196;-81
2022/07/05 11:47:13;;;;;;;2.42;1.20;;;27.60;99.90;;;;;;10360406;28;20252;-85
2022/07/05 11:52:38;;;;;;;4.25;0.95;;;28.20;99.90;;;;;;10348609;28;20198;-79
2022/07/05 11:57:59;;;;;;;3.33;1.48;;;27.60;99.90;;;;;;10348624;28;20224;-79
2022/07/05 12:03:21;;;;;;;4.15;1.20;;;27.20;99.90;;;;;;10349106;28;20198;-79
2022/07/05 12:08:43;;;;;;;3.22;1.42;;;26.70;99.90;;;;;;10347367;28;20554;-79
2022/07/05 12:14:04;;;;;;;4.03;1.23;;;26.10;99.90;;;;;;10348945;28;20273;-79
2022/07/05 12:19:26;;;;;;;8.50;1.13;;;26.20;99.90;;;;;;10348736;28;20239;-77
2022/07/05 12:24:47;;;;;;;1.38;1.00;;;26.80;99.90;;;;;;10348622;28;20197;-78
2022/07/05 12:30:10;;;;;;;2.10;1.20;;;26.30;99.90;;;;;;10354457;28;20531;-77
2022/07/05 12:35:40;;;;;;;4.68;1.33;;;25.90;99.90;;;;;;10356535;28;20280;-79
2022/07/05 12:41:02;;;;;;;7.68;1.52;;;25.60;99.90;;;;;;10356410;28;20209;-78
2022/07/05 12:46:43;;;;;;;2.25;0.98;;;25.30;99.90;;;;;;10355098;28;20249;-79
2022/07/05 12:52:05;;;;;;;2.03;1.50;;;25.30;99.90;;;;;;10369276;28;20332;-79
2022/07/05 13:03:07;;;;;;;2.92;1.30;;;25.20;99.90;;;;;;10322900;28;20202;-80
2022/07/05 13:08:30;;;;;;;1.75;0.95;;;25.40;99.90;;;;;;10354660;28;20301;-80
2022/07/05 13:13:51;;;;;;;4.65;1.27;;;25.40;99.90;;;;;;10339220;28;20505;-81
2022/07/05 13:19:13;;;;;;;2.65;0.95;;;25.30;99.90;;;;;;10355411;28;20248;-80
2022/07/05 13:24:35;;;;;;;3.40;1.42;;;25.20;99.90;;;;;;10364132;28;20226;-80
2022/07/05 13:29:57;;;;;;;3.05;1.45;;;25.10;99.90;;;;;;10347392;28;20265;-78
2022/07/05 13:35:18;;;;;;;2.28;1.10;;;25.00;99.90;;;;;;10356378;28;20558;-80
2022/07/05 13:40:40;;;;;;;1.45;1.13;;;25.20;99.90;;;;;;10359892;28;20204;-83
2022/07/05 13:46:01;;;;;;;2.45;1.13;;;25.70;99.90;;;;;;10331505;28;20296;-77
2022/07/05 13:51:22;;;;;;;1.65;1.02;;;25.50;99.90;;;;;;10350390;28;20205;-80
2022/07/05 13:56:47;;;;;;;4.13;1.30;;;25.40;99.90;;;;;;10343658;28;20256;-79
2022/07/05 14:02:12;;;;;;;2.50;1.20;;;25.30;99.90;;;;;;10359716;28;20201;-80
2022/07/05 14:07:34;;;;;;;3.50;1.50;;;25.10;99.90;;;;;;10359781;28;20194;-79
2022/07/05 14:12:55;;;;;;;3.70;1.50;;;24.80;99.90;;;;;;10338846;28;20197;-79
2022/07/05 14:18:18;;;;;;;2.28;1.30;;;24.60;99.90;;;;;;10360830;28;20233;-78
2022/07/05 14:23:41;;;;;;;4.45;1.50;;;24.30;99.90;;;;;;10359851;28;20212;-80
2022/07/05 14:29:03;;;;;;;4.50;1.50;;;24.00;99.90;;;;;;10358745;28;20210;-79
2022/07/05 14:34:24;;;;;;;3.00;1.70;;;24.10;99.90;;;;;;10359660;28;20556;-80
2022/07/05 14:39:46;;;;;;;5.00;1.10;;;24.10;99.90;;;;;;10358575;28;20228;-80
2022/07/05 14:45:08;;;;;;;5.50;1.92;;;23.90;99.90;;;;;;10357934;28;20556;-79
2022/07/05 14:50:29;;;;;;;4.45;1.63;;;23.40;99.90;;;;;;10342922;28;20234;-79
2022/07/05 14:55:51;;;;;;;8.88;1.58;;;23.10;99.90;;;;;;10358774;28;20233;-79
2022/07/05 15:01:12;;;;;;;2.42;1.33;;;23.00;99.90;;;;;;10347097;28;20201;-79
2022/07/05 15:06:36;;;;;;;2.60;1.48;;;22.90;99.90;;;;;;10362230;28;20453;-79
2022/07/05 15:11:58;;;;;;;2.17;1.38;;;23.00;99.90;;;;;;10349285;28;20193;-77
2022/07/05 15:17:20;;;;;;;3.42;1.48;;;22.90;99.90;;;;;;10360374;28;20226;-79
2022/07/05 15:22:41;;;;;;;2.65;1.75;;;22.90;99.90;;;;;;10349709;28;20191;-79
2022/07/05 15:28:04;;;;;;;2.88;1.60;;;23.00;99.90;;;;;;10348527;28;20219;-79
2022/07/05 15:33:30;;;;;;;3.95;1.73;;;22.80;99.90;;;;;;10341538;28;20572;-78
2022/07/05 15:38:53;;;;;;;1.20;1.08;;;22.80;99.90;;;;;;10354035;28;20258;-79
2022/07/05 15:44:18;;;;;;;2.65;1.30;;;22.80;99.90;;;;;;10362902;28;20182;-80
2022/07/05 15:49:39;;;;;;;2.03;1.40;;;22.80;99.90;;;;;;10357468;28;20268;-79
2022/07/05 15:55:01;;;;;;;3.40;1.40;;;22.90;99.90;;;;;;10354637;28;20190;-79
2022/07/05 16:00:22;;;;;;;3.05;1.73;;;23.00;99.90;;;;;;10353513;28;20197;-79
2022/07/05 16:05:43;;;;;;;3.50;2.20;;;23.00;99.90;;;;;;10360309;28;20200;-79
2022/07/05 16:11:04;;;;;;;2.08;1.45;;;23.00;99.90;;;;;;10333375;28;20432;-80
2022/07/05 16:16:25;;;;;;;2.42;1.40;;;23.00;99.90;;;;;;10338844;28;20312;-79
2022/07/05 16:21:51;;;;;;;3.83;1.58;;;23.00;99.90;;;;;;10347751;28;20190;-79
2022/07/05 16:27:14;;;;;;;1.67;1.25;;;23.00;99.90;;;;;;10360641;28;20216;-79
2022/07/05 16:32:35;;;;;;;3.90;1.60;;;23.00;99.90;;;;;;10362150;28;20189;-79
2022/07/05 16:37:56;;;;;;;12.85;2.20;;;23.10;99.90;;;;;;10321228;28;20416;-78
2022/07/05 16:43:18;;;;;;;3.80;1.83;;;23.20;99.90;;;;;;10306593;28;20198;-79
2022/07/05 16:48:40;;;;;;;7.93;1.73;;;23.10;99.90;;;;;;10320579;28;20265;-78
2022/07/05 16:54:02;;;;;;;5.53;1.30;;;23.00;99.90;;;;;;10320531;28;20225;-78
2022/07/05 16:59:23;;;;;;;5.75;1.92;;;22.90;99.90;;;;;;10319704;28;20241;-79
2022/07/05 17:04:45;;;;;;;2.25;1.17;;;22.70;99.90;;;;;;10356501;28;20277;-78
2022/07/05 17:10:07;;;;;;;4.72;1.35;;;22.70;99.90;;;;;;10359160;28;20507;-79
2022/07/05 17:15:28;;;;;;;2.17;1.30;;;22.60;99.90;;;;;;10358142;28;20485;-79
2022/07/05 17:20:49;;;;;;;2.90;1.20;;;22.60;99.90;;;;;;10359958;28;20198;-78
2022/07/05 17:26:20;;;;;;;2.22;1.20;;;22.50;99.90;;;;;;10359512;28;20197;-79
2022/07/05 17:31:42;;;;;;;2.67;1.23;;;22.40;99.90;;;;;;10359383;28;20198;-78
2022/07/05 17:37:04;;;;;;;2.70;1.30;;;22.30;99.90;;;;;;10372322;28;20534;-78
2022/07/05 17:42:26;;;;;;;3.45;1.25;;;22.10;99.90;;;;;;10358087;28;20198;-79
2022/07/05 17:47:47;;;;;;;3.38;1.25;;;22.10;99.90;;;;;;10358869;28;20599;-78
2022/07/05 17:53:08;;;;;;;2.08;1.52;;;22.00;99.90;;;;;;10359041;28;20261;-79
2022/07/05 17:58:29;;;;;;;2.83;1.25;;;21.80;99.90;;;;;;10343490;28;20596;-79
2022/07/05 18:03:52;;;;;;;2.00;1.08;;;21.70;99.90;;;;;;10358069;28;20190;-78
2022/07/05 18:09:13;;;;;;;3.28;1.30;;;21.60;99.90;;;;;;10356853;28;20281;-78
2022/07/05 18:14:35;;;;;;;4.15;1.92;;;21.50;99.90;;;;;;10356773;28;20201;-78
2022/07/05 18:19:56;;;;;;;4.05;1.67;;;21.40;99.90;;;;;;10343765;28;20252;-78
2022/07/05 18:25:17;;;;;;;1.88;1.30;;;21.30;99.90;;;;;;10315939;28;20194;-79
2022/07/05 18:30:38;;;;;;;5.72;1.38;;;21.30;99.90;;;;;;10319719;28;20507;-78
2022/07/05 18:36:00;;;;;;;0.98;0.95;;;21.20;99.90;;;;;;10357050;28;20217;-78
2022/07/05 18:41:21;;;;;;;2.63;1.27;;;21.00;99.90;;;;;;10355911;28;20190;-80
2022/07/05 18:46:43;;;;;;;1.73;1.25;;;20.80;99.90;;;;;;10355286;28;20241;-79
2022/07/05 18:52:05;;;;;;;1.10;1.00;;;20.70;99.90;;;;;;10355573;28;20240;-79
2022/07/05 18:57:26;;;;;;;2.72;1.40;;;20.60;99.90;;;;;;10355426;28;20237;-80
2022/07/05 19:02:48;;;;;;;3.08;1.30;;;20.60;99.90;;;;;;10340805;28;20202;-79
2022/07/05 19:13:49;;;;;;;4.63;1.65;;;20.40;99.90;;;;;;10340716;28;20202;-78
2022/07/05 19:19:10;;;;;;;3.38;1.30;;;20.20;99.90;;;;;;10353299;28;20245;-81
2022/07/05 19:24:31;;;;;;;3.38;1.52;;;20.10;99.90;;;;;;10354551;28;20190;-79
2022/07/05 19:29:53;;;;;;;1.20;1.08;;;20.10;99.90;;;;;;10354146;28;20501;-79
2022/07/05 19:35:14;;;;;;;1.70;0.98;;;20.10;99.90;;;;;;10340571;28;20206;-79
2022/07/05 19:40:35;;;;;;;4.78;2.00;;;20.00;99.90;;;;;;10367176;28;20284;-79
2022/07/05 19:45:58;;;;;;;9.00;1.90;;;19.70;99.90;;;;;;10354961;28;20240;-78
2022/07/05 19:51:20;;;;;;;4.63;2.10;;;19.70;99.90;;;;;;10368483;28;20485;-79
2022/07/05 19:56:41;;;;;;;3.30;1.77;;;19.60;99.90;;;;;;10355028;28;20268;-79
2022/07/05 20:02:03;;;;;;;4.28;2.50;;;19.50;99.90;;;;;;10353378;28;20193;-79
2022/07/05 20:07:25;;;;;;;4.82;2.30;;;19.40;99.90;;;;;;10353343;28;20459;-79
2022/07/05 20:12:47;;;;;;;2.75;1.73;;;19.30;99.90;;;;;;10313025;28;20369;-78
2022/07/05 20:18:08;;;;;;;3.95;1.60;;;19.20;99.90;;;;;;10351755;28;20225;-79
2022/07/05 20:23:30;;;;;;;3.35;1.50;;;19.10;99.90;;;;;;10353116;28;20190;-79
2022/07/05 20:28:51;;;;;;;2.90;1.50;;;18.90;99.90;;;;;;10354068;28;20201;-79
2022/07/05 20:34:13;;;;;;;3.33;1.70;;;18.80;99.90;;;;;;10352915;28;20284;-79
2022/07/05 20:39:36;;;;;;;2.78;1.60;;;18.60;99.90;;;;;;10353757;28;20228;-78
2022/07/05 20:44:57;;;;;;;2.97;2.20;;;;;;;;;;10353073;28;20237;-79
2022/07/05 20:50:19;;;;;;;2.75;1.70;;;18.40;99.90;;;;;;10343205;28;20288;-79
2022/07/05 20:55:40;;;;;;;5.90;2.08;;;18.30;99.90;;;;;;10346281;28;20220;-79
2022/07/05 21:01:02;;;;;;;6.50;1.70;;;18.30;99.90;;;;;;10360845;28;20200;-79
2022/07/05 21:06:24;;;;;;;2.55;1.80;;;18.20;99.90;;;;;;10359002;28;20208;-78
2022/07/05 21:11:45;;;;;;;2.47;1.50;;;18.10;99.90;;;;;;10359178;28;20202;-79
2022/07/05 21:17:07;;;;;;;2.90;1.52;;;18.10;99.90;;;;;;10359983;28;20252;-79
2022/07/05 21:22:28;;;;;;;3.08;1.50;;;18.10;99.90;;;;;;10360274;28;20190;-78
2022/07/05 21:27:49;;;;;;;2.47;1.58;;;18.00;99.90;;;;;;10372785;28;20193;-79
2022/07/05 21:33:11;;;;;;;2.85;1.73;;;18.00;99.90;;;;;;10358009;28;20201;-78
2022/07/05 21:38:32;;;;;;;3.10;1.90;;;17.80;99.90;;;;;;10359230;28;20288;-78
2022/07/05 21:43:54;;;;;;;4.03;1.70;;;17.70;99.90;;;;;;10358530;28;20531;-79
2022/07/05 21:49:16;;;;;;;3.20;1.58;;;17.50;99.90;;;;;;10358925;28;20492;-79
2022/07/05 21:54:37;;;;;;;7.05;2.42;;;17.40;99.90;;;;;;10358062;28;20242;-78
2022/07/05 22:05:39;;;;;;;5.70;3.33;;;17.00;99.90;;;;;;10356439;28;20198;-78
2022/07/05 22:16:40;;;;;;;4.35;2.47;;;16.60;1.00;;;;;;10356642;28;20213;-78
2022/07/05 22:22:01;;;;;;;7.50;3.00;;;16.60;1.00;;;;;;10357621;28;20214;-79
2022/07/05 22:27:23;;;;;;;5.55;2.90;;;16.70;1.00;;;;;;10356254;28;20365;-78
2022/07/05 22:32:46;;;;;;;8.35;3.03;;;16.70;1.00;;;;;;10357159;28;20213;-78
2022/07/05 22:38:48;;;;;;;4.55;3.10;;;16.70;1.00;;;;;;10356234;28;20235;-78
2022/07/05 22:44:12;;;;;;;5.30;3.22;;;16.60;48.40;;;;;;10355714;28;20372;-78
2022/07/05 22:49:36;;;;;;;4.63;3.15;;;16.50;99.90;;;;;;10355579;28;20257;-78
2022/07/05 22:54:57;;;;;;;7.25;3.92;;;16.40;1.00;;;;;;10357157;28;20186;-78
2022/07/05 23:00:19;;;;;;;8.98;4.88;;;16.30;99.90;;;;;;10354582;28;20240;-78
2022/07/05 23:05:40;;;;;;;6.53;3.97;;;16.10;1.00;;;;;;10356138;28;20197;-78
2022/07/05 23:11:01;;;;;;;7.65;3.42;;;15.90;1.00;;;;;;10355071;28;20559;-79
2022/07/05 23:16:23;;;;;;;6.35;3.17;;;15.70;1.00;;;;;;10354943;28;20199;-79
2022/07/05 23:21:44;;;;;;;7.88;2.88;;;15.60;99.90;;;;;;10354574;28;20208;-78
2022/07/05 23:27:05;;;;;;;4.97;3.22;;;15.70;2.90;;;;;;10354239;28;20212;-79
2022/07/05 23:32:27;;;;;;;5.03;2.95;;;15.70;1.00;;;;;;10353458;28;20223;-78
2022/07/05 23:37:48;;;;;;;5.70;3.00;;;15.70;1.00;;;;;;10354088;28;20246;-78
2022/07/05 23:43:10;;;;;;;5.07;3.33;;;15.70;1.00;;;;;;10353985;28;20226;-78
2022/07/05 23:48:31;;;;;;;5.03;3.15;;;15.80;99.90;;;;;;10353451;28;20232;-79
2022/07/05 23:53:53;;;;;;;9.27;3.47;;;15.70;99.90;;;;;;10355104;28;20192;-78
2022/07/05 23:59:14;;;;;;;4.60;2.75;;;15.60;99.90;;;;;;10355748;28;20231;-78
